sensor_id;sensor_type;location;lat;lon;timestamp;temperature;humidity
16881;DHT22;8557;52.068;5.198;2022-10-16T00:00:36;12.90;99.90
16881;DHT22;8557;52.068;5.198;2022-10-16T00:03:05;12.90;99.90
16881;DHT22;8557;52.068;5.198;2022-10-16T00:05:32;12.80;99.90
16881;DHT22;8557;52.068;5.198;2022-10-16T00:07:59;12.80;99.90
16881;DHT22;8557;52.068;5.198;2022-10-16T00:10:28;12.80;99.90
16881;DHT22;8557;52.068;5.198;2022-10-16T00:12:55;12.80;99.90
16881;DHT22;8557;52.068;5.198;2022-10-16T00:15:22;12.90;99.90
16881;DHT22;8557;52.068;5.198;2022-10-16T00:17:48;12.90;99.90
16881;DHT22;8557;52.068;5.198;2022-10-16T00:20:17;12.90;99.90
16881;DHT22;8557;52.068;5.198;2022-10-16T00:22:43;13.00;99.90
16881;DHT22;8557;52.068;5.198;2022-10-16T00:25:10;13.00;99.90
16881;DHT22;8557;52.068;5.198;2022-10-16T00:27:37;13.00;99.90
16881;DHT22;8557;52.068;5.198;2022-10-16T00:30:05;13.00;99.90
16881;DHT22;8557;52.068;5.198;2022-10-16T00:32:33;13.00;99.90
16881;DHT22;8557;52.068;5.198;2022-10-16T00:35:00;13.00;99.90
16881;DHT22;8557;52.068;5.198;2022-10-16T00:37:30;13.00;99.90
16881;DHT22;8557;52.068;5.198;2022-10-16T00:39:57;13.10;99.90
16881;DHT22;8557;52.068;5.198;2022-10-16T00:42:24;13.10;99.90
16881;DHT22;8557;52.068;5.198;2022-10-16T00:44:52;13.10;99.90
16881;DHT22;8557;52.068;5.198;2022-10-16T00:47:22;13.20;99.90
16881;DHT22;8557;52.068;5.198;2022-10-16T00:49:55;13.20;99.90
16881;DHT22;8557;52.068;5.198;2022-10-16T00:52:23;13.20;99.90
16881;DHT22;8557;52.068;5.198;2022-10-16T00:54:52;13.30;99.90
16881;DHT22;8557;52.068;5.198;2022-10-16T00:57:20;13.30;99.90
16881;DHT22;8557;52.068;5.198;2022-10-16T00:59:47;13.40;99.90
16881;DHT22;8557;52.068;5.198;2022-10-16T01:02:15;13.30;99.90
16881;DHT22;8557;52.068;5.198;2022-10-16T01:04:44;13.40;99.90
16881;DHT22;8557;52.068;5.198;2022-10-16T01:07:14;13.40;99.90
16881;DHT22;8557;52.068;5.198;2022-10-16T01:09:52;13.50;99.90
16881;DHT22;8557;52.068;5.198;2022-10-16T01:12:31;13.50;99.90
16881;DHT22;8557;52.068;5.198;2022-10-16T01:15:04;13.50;99.90
16881;DHT22;8557;52.068;5.198;2022-10-16T01:17:38;13.50;99.90
16881;DHT22;8557;52.068;5.198;2022-10-16T01:20:11;13.50;99.90
16881;DHT22;8557;52.068;5.198;2022-10-16T01:22:55;13.50;99.90
16881;DHT22;8557;52.068;5.198;2022-10-16T01:25:35;13.50;99.90
16881;DHT22;8557;52.068;5.198;2022-10-16T01:28:09;13.50;99.90
16881;DHT22;8557;52.068;5.198;2022-10-16T01:30:39;13.50;99.90
16881;DHT22;8557;52.068;5.198;2022-10-16T01:33:12;13.50;99.90
16881;DHT22;8557;52.068;5.198;2022-10-16T01:35:43;13.50;99.90
16881;DHT22;8557;52.068;5.198;2022-10-16T01:38:14;13.50;99.90
16881;DHT22;8557;52.068;5.198;2022-10-16T01:40:45;13.50;99.90
16881;DHT22;8557;52.068;5.198;2022-10-16T01:43:16;13.50;99.90
16881;DHT22;8557;52.068;5.198;2022-10-16T01:45:45;13.50;99.90
16881;DHT22;8557;52.068;5.198;2022-10-16T01:48:13;13.60;99.90
16881;DHT22;8557;52.068;5.198;2022-10-16T01:50:44;13.60;99.90
16881;DHT22;8557;52.068;5.198;2022-10-16T01:53:13;13.60;99.90
16881;DHT22;8557;52.068;5.198;2022-10-16T01:55:44;13.60;99.90
16881;DHT22;8557;52.068;5.198;2022-10-16T01:58:14;13.60;99.90
16881;DHT22;8557;52.068;5.198;2022-10-16T02:00:44;13.60;99.90
16881;DHT22;8557;52.068;5.198;2022-10-16T02:03:12;13.50;99.90
16881;DHT22;8557;52.068;5.198;2022-10-16T02:05:44;13.50;99.90
16881;DHT22;8557;52.068;5.198;2022-10-16T02:08:11;13.50;99.90
16881;DHT22;8557;52.068;5.198;2022-10-16T02:10:39;13.50;99.90
16881;DHT22;8557;52.068;5.198;2022-10-16T02:13:09;13.40;99.90
16881;DHT22;8557;52.068;5.198;2022-10-16T02:15:38;13.30;99.90
16881;DHT22;8557;52.068;5.198;2022-10-16T02:18:07;13.30;99.90
16881;DHT22;8557;52.068;5.198;2022-10-16T02:20:38;13.30;99.90
16881;DHT22;8557;52.068;5.198;2022-10-16T02:23:08;13.20;99.90
16881;DHT22;8557;52.068;5.198;2022-10-16T02:25:40;13.20;99.90
16881;DHT22;8557;52.068;5.198;2022-10-16T02:28:13;13.10;99.90
16881;DHT22;8557;52.068;5.198;2022-10-16T02:30:46;13.10;99.90
16881;DHT22;8557;52.068;5.198;2022-10-16T02:33:16;13.10;99.90
16881;DHT22;8557;52.068;5.198;2022-10-16T02:35:45;13.00;99.90
16881;DHT22;8557;52.068;5.198;2022-10-16T02:38:14;13.10;99.90
16881;DHT22;8557;52.068;5.198;2022-10-16T02:40:42;13.10;99.90
16881;DHT22;8557;52.068;5.198;2022-10-16T02:43:08;13.10;99.90
16881;DHT22;8557;52.068;5.198;2022-10-16T02:45:36;13.10;99.90
16881;DHT22;8557;52.068;5.198;2022-10-16T02:48:04;13.10;99.90
16881;DHT22;8557;52.068;5.198;2022-10-16T02:50:31;13.10;99.90
16881;DHT22;8557;52.068;5.198;2022-10-16T02:52:58;13.20;99.90
16881;DHT22;8557;52.068;5.198;2022-10-16T02:55:25;13.20;99.90
16881;DHT22;8557;52.068;5.198;2022-10-16T02:57:53;13.20;99.90
16881;DHT22;8557;52.068;5.198;2022-10-16T03:00:20;13.10;99.90
16881;DHT22;8557;52.068;5.198;2022-10-16T03:02:47;13.20;99.90
16881;DHT22;8557;52.068;5.198;2022-10-16T03:05:15;13.20;99.90
16881;DHT22;8557;52.068;5.198;2022-10-16T03:07:42;13.20;99.90
16881;DHT22;8557;52.068;5.198;2022-10-16T03:10:09;13.20;99.90
16881;DHT22;8557;52.068;5.198;2022-10-16T03:12:36;13.20;99.90
16881;DHT22;8557;52.068;5.198;2022-10-16T03:15:03;13.20;99.90
16881;DHT22;8557;52.068;5.198;2022-10-16T03:17:31;13.20;99.90
16881;DHT22;8557;52.068;5.198;2022-10-16T03:19:58;13.20;99.90
16881;DHT22;8557;52.068;5.198;2022-10-16T03:22:27;13.20;99.90
16881;DHT22;8557;52.068;5.198;2022-10-16T03:24:53;13.10;99.90
16881;DHT22;8557;52.068;5.198;2022-10-16T03:27:21;13.10;99.90
16881;DHT22;8557;52.068;5.198;2022-10-16T03:29:47;13.00;99.90
16881;DHT22;8557;52.068;5.198;2022-10-16T03:32:14;13.00;99.90
16881;DHT22;8557;52.068;5.198;2022-10-16T03:34:41;12.80;99.90
16881;DHT22;8557;52.068;5.198;2022-10-16T03:37:07;12.80;99.90
16881;DHT22;8557;52.068;5.198;2022-10-16T03:39:35;12.80;99.90
16881;DHT22;8557;52.068;5.198;2022-10-16T03:42:02;12.80;99.90
16881;DHT22;8557;52.068;5.198;2022-10-16T03:44:29;12.90;99.90
16881;DHT22;8557;52.068;5.198;2022-10-16T03:46:56;12.90;99.90
16881;DHT22;8557;52.068;5.198;2022-10-16T03:49:22;12.90;99.90
16881;DHT22;8557;52.068;5.198;2022-10-16T03:51:49;12.90;99.90
16881;DHT22;8557;52.068;5.198;2022-10-16T03:54:16;12.90;99.90
16881;DHT22;8557;52.068;5.198;2022-10-16T03:56:44;12.90;99.90
16881;DHT22;8557;52.068;5.198;2022-10-16T03:59:11;12.80;99.90
16881;DHT22;8557;52.068;5.198;2022-10-16T04:01:37;12.80;99.90
16881;DHT22;8557;52.068;5.198;2022-10-16T04:04:04;12.80;99.90
16881;DHT22;8557;52.068;5.198;2022-10-16T04:06:31;12.70;99.90
16881;DHT22;8557;52.068;5.198;2022-10-16T04:08:58;12.70;99.90
16881;DHT22;8557;52.068;5.198;2022-10-16T04:11:25;12.60;99.90
16881;DHT22;8557;52.068;5.198;2022-10-16T04:13:53;12.70;99.90
16881;DHT22;8557;52.068;5.198;2022-10-16T04:16:20;12.60;99.90
16881;DHT22;8557;52.068;5.198;2022-10-16T04:18:46;12.60;99.90
16881;DHT22;8557;52.068;5.198;2022-10-16T04:21:13;12.60;99.90
16881;DHT22;8557;52.068;5.198;2022-10-16T04:23:40;12.60;99.90
16881;DHT22;8557;52.068;5.198;2022-10-16T04:26:06;12.60;99.90
16881;DHT22;8557;52.068;5.198;2022-10-16T04:28:33;12.70;99.90
16881;DHT22;8557;52.068;5.198;2022-10-16T04:31:03;12.70;99.90
16881;DHT22;8557;52.068;5.198;2022-10-16T04:33:30;12.80;99.90
16881;DHT22;8557;52.068;5.198;2022-10-16T04:35:57;12.80;99.90
16881;DHT22;8557;52.068;5.198;2022-10-16T04:38:24;12.80;99.90
16881;DHT22;8557;52.068;5.198;2022-10-16T04:40:51;12.80;99.90
16881;DHT22;8557;52.068;5.198;2022-10-16T04:43:19;12.90;99.90
16881;DHT22;8557;52.068;5.198;2022-10-16T04:45:46;13.00;99.90
16881;DHT22;8557;52.068;5.198;2022-10-16T04:48:14;13.00;99.90
16881;DHT22;8557;52.068;5.198;2022-10-16T04:50:41;12.90;99.90
16881;DHT22;8557;52.068;5.198;2022-10-16T04:53:08;12.80;99.90
16881;DHT22;8557;52.068;5.198;2022-10-16T04:55:34;12.70;99.90
16881;DHT22;8557;52.068;5.198;2022-10-16T04:58:01;12.70;99.90
16881;DHT22;8557;52.068;5.198;2022-10-16T05:00:28;12.80;99.90
16881;DHT22;8557;52.068;5.198;2022-10-16T05:02:55;12.70;99.90
16881;DHT22;8557;52.068;5.198;2022-10-16T05:05:23;12.70;99.90
16881;DHT22;8557;52.068;5.198;2022-10-16T05:07:50;12.60;99.90
16881;DHT22;8557;52.068;5.198;2022-10-16T05:10:17;12.60;99.90
16881;DHT22;8557;52.068;5.198;2022-10-16T05:12:44;12.60;99.90
16881;DHT22;8557;52.068;5.198;2022-10-16T05:15:11;12.50;99.90
16881;DHT22;8557;52.068;5.198;2022-10-16T05:17:38;12.50;99.90
16881;DHT22;8557;52.068;5.198;2022-10-16T05:20:05;12.50;99.90
16881;DHT22;8557;52.068;5.198;2022-10-16T05:22:34;12.50;99.90
16881;DHT22;8557;52.068;5.198;2022-10-16T05:25:00;12.60;99.90
16881;DHT22;8557;52.068;5.198;2022-10-16T05:27:27;12.60;99.90
16881;DHT22;8557;52.068;5.198;2022-10-16T05:29:54;12.70;99.90
16881;DHT22;8557;52.068;5.198;2022-10-16T05:32:21;12.60;99.90
16881;DHT22;8557;52.068;5.198;2022-10-16T05:34:47;12.70;99.90
16881;DHT22;8557;52.068;5.198;2022-10-16T05:37:14;12.80;99.90
16881;DHT22;8557;52.068;5.198;2022-10-16T05:39:42;12.70;99.90
16881;DHT22;8557;52.068;5.198;2022-10-16T05:42:09;12.80;99.90
16881;DHT22;8557;52.068;5.198;2022-10-16T05:44:36;12.80;99.90
16881;DHT22;8557;52.068;5.198;2022-10-16T05:47:03;12.80;99.90
16881;DHT22;8557;52.068;5.198;2022-10-16T05:49:30;12.80;99.90
16881;DHT22;8557;52.068;5.198;2022-10-16T05:51:57;12.80;99.90
16881;DHT22;8557;52.068;5.198;2022-10-16T05:54:24;12.90;99.90
16881;DHT22;8557;52.068;5.198;2022-10-16T05:56:52;12.90;99.90
16881;DHT22;8557;52.068;5.198;2022-10-16T05:59:18;12.90;99.90
16881;DHT22;8557;52.068;5.198;2022-10-16T06:01:45;13.00;99.90
16881;DHT22;8557;52.068;5.198;2022-10-16T06:04:12;12.90;99.90
16881;DHT22;8557;52.068;5.198;2022-10-16T06:06:39;12.90;99.90
16881;DHT22;8557;52.068;5.198;2022-10-16T06:09:05;12.90;99.90
16881;DHT22;8557;52.068;5.198;2022-10-16T06:11:33;13.00;99.90
16881;DHT22;8557;52.068;5.198;2022-10-16T06:14:02;13.00;99.90
16881;DHT22;8557;52.068;5.198;2022-10-16T06:16:32;13.00;99.90
16881;DHT22;8557;52.068;5.198;2022-10-16T06:18:59;12.90;99.90
16881;DHT22;8557;52.068;5.198;2022-10-16T06:21:27;13.00;99.90
16881;DHT22;8557;52.068;5.198;2022-10-16T06:23:55;13.00;99.90
16881;DHT22;8557;52.068;5.198;2022-10-16T06:26:23;13.00;99.90
16881;DHT22;8557;52.068;5.198;2022-10-16T06:28:50;13.00;99.90
16881;DHT22;8557;52.068;5.198;2022-10-16T06:31:19;13.10;99.90
16881;DHT22;8557;52.068;5.198;2022-10-16T06:33:50;13.10;99.90
16881;DHT22;8557;52.068;5.198;2022-10-16T06:36:17;13.00;99.90
16881;DHT22;8557;52.068;5.198;2022-10-16T06:38:44;13.00;99.90
16881;DHT22;8557;52.068;5.198;2022-10-16T06:41:13;13.10;99.90
16881;DHT22;8557;52.068;5.198;2022-10-16T06:43:40;13.10;99.90
16881;DHT22;8557;52.068;5.198;2022-10-16T06:46:09;13.20;99.90
16881;DHT22;8557;52.068;5.198;2022-10-16T06:48:37;13.20;99.90
16881;DHT22;8557;52.068;5.198;2022-10-16T06:51:08;13.30;99.90
16881;DHT22;8557;52.068;5.198;2022-10-16T06:53:37;13.30;99.90
16881;DHT22;8557;52.068;5.198;2022-10-16T06:56:08;13.30;99.90
16881;DHT22;8557;52.068;5.198;2022-10-16T06:58:35;13.40;99.90
16881;DHT22;8557;52.068;5.198;2022-10-16T07:01:02;13.40;99.90
16881;DHT22;8557;52.068;5.198;2022-10-16T07:03:29;13.40;99.90
16881;DHT22;8557;52.068;5.198;2022-10-16T07:06:00;13.50;99.90
16881;DHT22;8557;52.068;5.198;2022-10-16T07:08:27;13.50;99.90
16881;DHT22;8557;52.068;5.198;2022-10-16T07:10:58;13.50;99.90
16881;DHT22;8557;52.068;5.198;2022-10-16T07:13:26;13.50;99.90
16881;DHT22;8557;52.068;5.198;2022-10-16T07:15:52;13.50;99.90
16881;DHT22;8557;52.068;5.198;2022-10-16T07:18:19;13.50;99.90
16881;DHT22;8557;52.068;5.198;2022-10-16T07:20:46;13.60;99.90
16881;DHT22;8557;52.068;5.198;2022-10-16T07:23:14;13.60;99.90
16881;DHT22;8557;52.068;5.198;2022-10-16T07:25:41;13.60;99.90
16881;DHT22;8557;52.068;5.198;2022-10-16T07:28:07;13.60;99.90
16881;DHT22;8557;52.068;5.198;2022-10-16T07:30:35;13.70;99.90
16881;DHT22;8557;52.068;5.198;2022-10-16T07:33:03;13.60;99.90
16881;DHT22;8557;52.068;5.198;2022-10-16T07:35:30;13.60;99.90
16881;DHT22;8557;52.068;5.198;2022-10-16T07:37:56;13.70;99.90
16881;DHT22;8557;52.068;5.198;2022-10-16T07:40:24;13.70;99.90
16881;DHT22;8557;52.068;5.198;2022-10-16T07:42:52;13.60;99.90
16881;DHT22;8557;52.068;5.198;2022-10-16T07:45:19;13.50;99.90
16881;DHT22;8557;52.068;5.198;2022-10-16T07:47:46;13.40;99.90
16881;DHT22;8557;52.068;5.198;2022-10-16T07:50:12;13.40;99.90
16881;DHT22;8557;52.068;5.198;2022-10-16T07:52:39;13.40;99.90
16881;DHT22;8557;52.068;5.198;2022-10-16T07:55:07;13.40;99.90
16881;DHT22;8557;52.068;5.198;2022-10-16T07:57:35;13.50;99.90
16881;DHT22;8557;52.068;5.198;2022-10-16T08:00:03;13.60;99.90
16881;DHT22;8557;52.068;5.198;2022-10-16T08:02:29;13.60;99.90
16881;DHT22;8557;52.068;5.198;2022-10-16T08:04:57;13.70;99.90
16881;DHT22;8557;52.068;5.198;2022-10-16T08:07:24;13.80;99.90
16881;DHT22;8557;52.068;5.198;2022-10-16T08:09:51;13.80;99.90
16881;DHT22;8557;52.068;5.198;2022-10-16T08:12:18;13.80;99.90
16881;DHT22;8557;52.068;5.198;2022-10-16T08:14:46;13.90;99.90
16881;DHT22;8557;52.068;5.198;2022-10-16T08:17:14;13.90;99.90
16881;DHT22;8557;52.068;5.198;2022-10-16T08:19:44;14.00;99.90
16881;DHT22;8557;52.068;5.198;2022-10-16T08:22:11;14.10;99.90
16881;DHT22;8557;52.068;5.198;2022-10-16T08:24:38;14.20;99.90
16881;DHT22;8557;52.068;5.198;2022-10-16T08:27:05;14.30;99.90
16881;DHT22;8557;52.068;5.198;2022-10-16T08:29:32;14.30;99.90
16881;DHT22;8557;52.068;5.198;2022-10-16T08:32:00;14.40;99.90
16881;DHT22;8557;52.068;5.198;2022-10-16T08:34:27;14.40;99.90
16881;DHT22;8557;52.068;5.198;2022-10-16T08:36:54;14.40;99.90
16881;DHT22;8557;52.068;5.198;2022-10-16T08:39:20;14.50;99.90
16881;DHT22;8557;52.068;5.198;2022-10-16T08:45:13;14.60;99.90
16881;DHT22;8557;52.068;5.198;2022-10-16T08:47:49;14.70;99.90
16881;DHT22;8557;52.068;5.198;2022-10-16T08:50:22;14.80;99.90
16881;DHT22;8557;52.068;5.198;2022-10-16T08:52:51;14.80;99.90
16881;DHT22;8557;52.068;5.198;2022-10-16T08:55:31;14.80;99.90
16881;DHT22;8557;52.068;5.198;2022-10-16T08:58:00;14.90;99.90
16881;DHT22;8557;52.068;5.198;2022-10-16T09:00:27;15.00;99.90
16881;DHT22;8557;52.068;5.198;2022-10-16T09:03:03;15.00;99.90
16881;DHT22;8557;52.068;5.198;2022-10-16T09:05:52;15.10;99.90
16881;DHT22;8557;52.068;5.198;2022-10-16T09:08:31;15.10;99.90
16881;DHT22;8557;52.068;5.198;2022-10-16T09:11:03;15.20;99.90
16881;DHT22;8557;52.068;5.198;2022-10-16T09:13:36;15.30;99.90
16881;DHT22;8557;52.068;5.198;2022-10-16T09:16:15;15.30;99.90
16881;DHT22;8557;52.068;5.198;2022-10-16T09:18:50;15.40;99.90
16881;DHT22;8557;52.068;5.198;2022-10-16T09:21:21;15.50;99.90
16881;DHT22;8557;52.068;5.198;2022-10-16T09:23:50;15.60;99.90
16881;DHT22;8557;52.068;5.198;2022-10-16T09:26:18;15.50;99.90
16881;DHT22;8557;52.068;5.198;2022-10-16T09:28:47;15.60;99.90
16881;DHT22;8557;52.068;5.198;2022-10-16T09:31:17;15.60;99.90
16881;DHT22;8557;52.068;5.198;2022-10-16T09:33:50;15.70;99.90
16881;DHT22;8557;52.068;5.198;2022-10-16T09:36:19;16.00;99.90
16881;DHT22;8557;52.068;5.198;2022-10-16T09:38:46;16.20;99.90
16881;DHT22;8557;52.068;5.198;2022-10-16T09:41:17;16.20;99.90
16881;DHT22;8557;52.068;5.198;2022-10-16T09:43:49;16.10;99.90
16881;DHT22;8557;52.068;5.198;2022-10-16T09:46:26;16.20;99.90
16881;DHT22;8557;52.068;5.198;2022-10-16T09:48:57;16.20;99.90
16881;DHT22;8557;52.068;5.198;2022-10-16T09:51:26;16.30;99.90
16881;DHT22;8557;52.068;5.198;2022-10-16T09:53:59;16.40;99.90
16881;DHT22;8557;52.068;5.198;2022-10-16T09:56:28;16.60;99.90
16881;DHT22;8557;52.068;5.198;2022-10-16T09:58:56;16.80;99.90
16881;DHT22;8557;52.068;5.198;2022-10-16T10:01:28;17.00;99.90
16881;DHT22;8557;52.068;5.198;2022-10-16T10:03:58;17.00;99.90
16881;DHT22;8557;52.068;5.198;2022-10-16T10:06:28;17.10;99.90
16881;DHT22;8557;52.068;5.198;2022-10-16T10:08:58;17.20;99.90
16881;DHT22;8557;52.068;5.198;2022-10-16T10:11:44;17.30;99.90
16881;DHT22;8557;52.068;5.198;2022-10-16T10:14:17;17.30;99.90
16881;DHT22;8557;52.068;5.198;2022-10-16T10:16:45;17.30;99.90
16881;DHT22;8557;52.068;5.198;2022-10-16T10:19:15;17.40;99.90
16881;DHT22;8557;52.068;5.198;2022-10-16T10:21:42;17.50;99.90
16881;DHT22;8557;52.068;5.198;2022-10-16T10:24:11;17.70;99.90
16881;DHT22;8557;52.068;5.198;2022-10-16T10:26:39;17.90;99.90
16881;DHT22;8557;52.068;5.198;2022-10-16T10:29:13;18.10;99.90
16881;DHT22;8557;52.068;5.198;2022-10-16T10:31:47;18.00;99.90
16881;DHT22;8557;52.068;5.198;2022-10-16T10:34:38;17.80;99.90
16881;DHT22;8557;52.068;5.198;2022-10-16T10:37:13;17.60;99.90
16881;DHT22;8557;52.068;5.198;2022-10-16T10:39:52;17.60;97.90
16881;DHT22;8557;52.068;5.198;2022-10-16T10:42:27;17.60;68.90
16881;DHT22;8557;52.068;5.198;2022-10-16T10:45:11;17.80;1.00
16881;DHT22;8557;52.068;5.198;2022-10-16T10:47:47;18.00;1.00
16881;DHT22;8557;52.068;5.198;2022-10-16T10:50:24;18.20;1.00
16881;DHT22;8557;52.068;5.198;2022-10-16T10:53:02;18.50;1.00
16881;DHT22;8557;52.068;5.198;2022-10-16T10:55:38;18.50;1.00
16881;DHT22;8557;52.068;5.198;2022-10-16T10:58:34;18.50;1.00
16881;DHT22;8557;52.068;5.198;2022-10-16T11:01:08;18.50;1.00
16881;DHT22;8557;52.068;5.198;2022-10-16T11:03:53;18.40;1.00
16881;DHT22;8557;52.068;5.198;2022-10-16T11:06:26;18.50;1.00
16881;DHT22;8557;52.068;5.198;2022-10-16T11:08:58;18.40;1.00
16881;DHT22;8557;52.068;5.198;2022-10-16T11:11:31;18.10;1.00
16881;DHT22;8557;52.068;5.198;2022-10-16T11:14:04;18.00;1.00
16881;DHT22;8557;52.068;5.198;2022-10-16T11:16:35;18.10;1.00
16881;DHT22;8557;52.068;5.198;2022-10-16T11:19:14;18.20;1.00
16881;DHT22;8557;52.068;5.198;2022-10-16T11:21:51;18.30;1.00
16881;DHT22;8557;52.068;5.198;2022-10-16T11:24:23;18.70;1.00
16881;DHT22;8557;52.068;5.198;2022-10-16T11:26:54;18.90;1.00
16881;DHT22;8557;52.068;5.198;2022-10-16T11:29:25;18.90;1.00
16881;DHT22;8557;52.068;5.198;2022-10-16T11:31:59;19.10;1.00
16881;DHT22;8557;52.068;5.198;2022-10-16T11:34:29;19.10;1.00
16881;DHT22;8557;52.068;5.198;2022-10-16T11:37:05;19.20;1.00
16881;DHT22;8557;52.068;5.198;2022-10-16T11:39:32;19.40;1.00
16881;DHT22;8557;52.068;5.198;2022-10-16T11:42:03;19.60;1.00
16881;DHT22;8557;52.068;5.198;2022-10-16T11:44:41;19.60;1.00
16881;DHT22;8557;52.068;5.198;2022-10-16T11:47:23;19.50;1.00
16881;DHT22;8557;52.068;5.198;2022-10-16T11:49:57;19.50;46.30
16881;DHT22;8557;52.068;5.198;2022-10-16T11:52:32;19.70;1.00
16881;DHT22;8557;52.068;5.198;2022-10-16T11:55:04;19.40;76.60
16881;DHT22;8557;52.068;5.198;2022-10-16T11:57:34;19.80;1.00
16881;DHT22;8557;52.068;5.198;2022-10-16T12:00:07;20.00;84.40
16881;DHT22;8557;52.068;5.198;2022-10-16T12:02:52;20.30;92.60
16881;DHT22;8557;52.068;5.198;2022-10-16T12:05:25;20.40;1.00
16881;DHT22;8557;52.068;5.198;2022-10-16T12:08:04;19.90;1.00
16881;DHT22;8557;52.068;5.198;2022-10-16T12:10:33;19.70;1.00
16881;DHT22;8557;52.068;5.198;2022-10-16T12:13:03;19.90;1.00
16881;DHT22;8557;52.068;5.198;2022-10-16T12:15:31;20.40;99.90
16881;DHT22;8557;52.068;5.198;2022-10-16T12:17:59;20.80;1.00
16881;DHT22;8557;52.068;5.198;2022-10-16T12:20:29;21.20;99.90
16881;DHT22;8557;52.068;5.198;2022-10-16T12:23:00;21.70;99.90
16881;DHT22;8557;52.068;5.198;2022-10-16T12:25:30;22.40;99.90
16881;DHT22;8557;52.068;5.198;2022-10-16T12:28:00;23.00;99.90
16881;DHT22;8557;52.068;5.198;2022-10-16T12:30:29;23.60;99.90
16881;DHT22;8557;52.068;5.198;2022-10-16T12:32:57;23.80;1.00
16881;DHT22;8557;52.068;5.198;2022-10-16T12:35:27;24.10;1.00
16881;DHT22;8557;52.068;5.198;2022-10-16T12:38:07;23.90;1.00
16881;DHT22;8557;52.068;5.198;2022-10-16T12:40:35;24.20;1.00
16881;DHT22;8557;52.068;5.198;2022-10-16T12:43:25;24.60;1.00
16881;DHT22;8557;52.068;5.198;2022-10-16T12:46:04;24.70;99.90
16881;DHT22;8557;52.068;5.198;2022-10-16T12:48:31;24.80;99.90
16881;DHT22;8557;52.068;5.198;2022-10-16T12:51:10;25.50;99.90
16881;DHT22;8557;52.068;5.198;2022-10-16T12:53:38;25.50;99.90
16881;DHT22;8557;52.068;5.198;2022-10-16T12:56:12;25.10;1.00
16881;DHT22;8557;52.068;5.198;2022-10-16T12:59:01;25.10;1.00
16881;DHT22;8557;52.068;5.198;2022-10-16T13:01:38;25.50;1.00
16881;DHT22;8557;52.068;5.198;2022-10-16T13:04:37;26.30;1.00
16881;DHT22;8557;52.068;5.198;2022-10-16T13:07:26;26.30;1.00
16881;DHT22;8557;52.068;5.198;2022-10-16T13:10:06;26.70;1.00
16881;DHT22;8557;52.068;5.198;2022-10-16T13:12:56;27.60;99.90
16881;DHT22;8557;52.068;5.198;2022-10-16T13:15:40;27.80;1.00
16881;DHT22;8557;52.068;5.198;2022-10-16T13:18:14;28.80;1.00
16881;DHT22;8557;52.068;5.198;2022-10-16T13:20:55;28.30;99.90
16881;DHT22;8557;52.068;5.198;2022-10-16T13:23:29;27.80;99.90
16881;DHT22;8557;52.068;5.198;2022-10-16T13:26:08;28.10;99.90
16881;DHT22;8557;52.068;5.198;2022-10-16T13:28:39;28.10;74.40
16881;DHT22;8557;52.068;5.198;2022-10-16T13:31:13;27.60;1.00
16881;DHT22;8557;52.068;5.198;2022-10-16T13:33:44;27.70;1.00
16881;DHT22;8557;52.068;5.198;2022-10-16T13:36:19;27.60;1.00
16881;DHT22;8557;52.068;5.198;2022-10-16T13:38:47;26.60;1.00
16881;DHT22;8557;52.068;5.198;2022-10-16T13:41:17;26.50;1.00
16881;DHT22;8557;52.068;5.198;2022-10-16T13:43:47;26.00;1.00
16881;DHT22;8557;52.068;5.198;2022-10-16T13:46:17;25.20;1.00
16881;DHT22;8557;52.068;5.198;2022-10-16T13:48:44;24.40;17.60
16881;DHT22;8557;52.068;5.198;2022-10-16T13:51:13;24.00;99.90
16881;DHT22;8557;52.068;5.198;2022-10-16T13:53:41;23.30;99.90
16881;DHT22;8557;52.068;5.198;2022-10-16T13:56:11;23.10;1.00
16881;DHT22;8557;52.068;5.198;2022-10-16T13:58:40;22.80;1.00
16881;DHT22;8557;52.068;5.198;2022-10-16T14:01:16;22.50;97.60
16881;DHT22;8557;52.068;5.198;2022-10-16T14:03:44;22.40;1.00
16881;DHT22;8557;52.068;5.198;2022-10-16T14:06:13;22.20;1.00
16881;DHT22;8557;52.068;5.198;2022-10-16T14:08:43;22.40;99.90
16881;DHT22;8557;52.068;5.198;2022-10-16T14:11:11;22.70;99.90
16881;DHT22;8557;52.068;5.198;2022-10-16T14:13:43;22.60;99.90
16881;DHT22;8557;52.068;5.198;2022-10-16T14:16:17;22.60;50.20
16881;DHT22;8557;52.068;5.198;2022-10-16T14:18:46;22.00;1.00
16881;DHT22;8557;52.068;5.198;2022-10-16T14:21:16;21.60;99.90
16881;DHT22;8557;52.068;5.198;2022-10-16T14:23:43;21.60;67.60
16881;DHT22;8557;52.068;5.198;2022-10-16T14:26:19;21.30;99.90
16881;DHT22;8557;52.068;5.198;2022-10-16T14:28:49;21.30;1.00
16881;DHT22;8557;52.068;5.198;2022-10-16T14:31:30;21.20;99.90
16881;DHT22;8557;52.068;5.198;2022-10-16T14:33:58;21.10;99.90
16881;DHT22;8557;52.068;5.198;2022-10-16T14:36:26;20.90;1.00
16881;DHT22;8557;52.068;5.198;2022-10-16T14:38:59;20.70;1.00
16881;DHT22;8557;52.068;5.198;2022-10-16T14:41:27;20.60;1.00
16881;DHT22;8557;52.068;5.198;2022-10-16T14:43:56;20.60;1.00
16881;DHT22;8557;52.068;5.198;2022-10-16T14:46:32;20.50;1.00
16881;DHT22;8557;52.068;5.198;2022-10-16T14:49:02;20.40;1.00
16881;DHT22;8557;52.068;5.198;2022-10-16T14:51:30;20.40;1.00
16881;DHT22;8557;52.068;5.198;2022-10-16T14:53:57;20.30;1.00
16881;DHT22;8557;52.068;5.198;2022-10-16T14:56:25;20.10;1.00
16881;DHT22;8557;52.068;5.198;2022-10-16T14:58:55;19.80;1.00
16881;DHT22;8557;52.068;5.198;2022-10-16T15:01:22;19.90;99.90
16881;DHT22;8557;52.068;5.198;2022-10-16T15:03:49;19.80;99.90
16881;DHT22;8557;52.068;5.198;2022-10-16T15:06:17;19.60;99.90
16881;DHT22;8557;52.068;5.198;2022-10-16T15:08:44;19.40;99.90
16881;DHT22;8557;52.068;5.198;2022-10-16T15:11:13;19.40;99.90
16881;DHT22;8557;52.068;5.198;2022-10-16T15:13:41;19.30;99.90
16881;DHT22;8557;52.068;5.198;2022-10-16T15:16:11;19.30;99.90
16881;DHT22;8557;52.068;5.198;2022-10-16T15:18:38;19.20;99.90
16881;DHT22;8557;52.068;5.198;2022-10-16T15:21:04;19.20;1.00
16881;DHT22;8557;52.068;5.198;2022-10-16T15:23:31;19.00;1.00
16881;DHT22;8557;52.068;5.198;2022-10-16T15:25:58;18.80;1.00
16881;DHT22;8557;52.068;5.198;2022-10-16T15:28:25;18.70;1.00
16881;DHT22;8557;52.068;5.198;2022-10-16T15:30:53;18.60;1.00
16881;DHT22;8557;52.068;5.198;2022-10-16T15:33:23;18.40;1.00
16881;DHT22;8557;52.068;5.198;2022-10-16T15:35:52;18.30;1.00
16881;DHT22;8557;52.068;5.198;2022-10-16T15:38:20;18.00;1.00
16881;DHT22;8557;52.068;5.198;2022-10-16T15:40:49;17.90;1.00
16881;DHT22;8557;52.068;5.198;2022-10-16T15:43:16;17.80;1.00
16881;DHT22;8557;52.068;5.198;2022-10-16T15:45:44;17.80;45.20
16881;DHT22;8557;52.068;5.198;2022-10-16T15:48:11;17.80;78.60
16881;DHT22;8557;52.068;5.198;2022-10-16T15:50:40;17.80;75.90
16881;DHT22;8557;52.068;5.198;2022-10-16T15:53:07;17.60;99.90
16881;DHT22;8557;52.068;5.198;2022-10-16T15:55:34;17.50;99.90
16881;DHT22;8557;52.068;5.198;2022-10-16T15:58:03;17.30;99.90
16881;DHT22;8557;52.068;5.198;2022-10-16T16:00:30;17.20;99.90
16881;DHT22;8557;52.068;5.198;2022-10-16T16:02:57;17.20;99.90
16881;DHT22;8557;52.068;5.198;2022-10-16T16:05:24;17.20;99.90
16881;DHT22;8557;52.068;5.198;2022-10-16T16:07:52;17.20;99.90
16881;DHT22;8557;52.068;5.198;2022-10-16T16:10:19;17.20;99.90